createdAt,value
2018-04-16T00:00:55.749Z,11.95
2018-04-16T00:04:56.319Z,11.26
2018-04-16T00:06:56.873Z,6.77
2018-04-16T00:10:57.344Z,8.97
2018-04-16T00:16:57.745Z,9.51
2018-04-16T00:20:58.276Z,10.59
2018-04-16T00:26:58.718Z,10.42
2018-04-16T00:32:59.211Z,8.9
2018-04-16T00:36:59.713Z,13.54
2018-04-16T00:43:00.304Z,10.07
2018-04-16T00:47:00.707Z,9.1
2018-04-16T00:53:01.279Z,8.93
2018-04-16T00:59:02.031Z,8.08
2018-04-16T01:03:02.581Z,9.26
2018-04-16T01:09:03.233Z,10.88
2018-04-16T01:13:03.790Z,9.07
2018-04-16T01:19:04.412Z,9.28
2018-04-16T01:25:04.976Z,9.42
2018-04-16T01:29:05.517Z,10
2018-04-16T01:35:06.040Z,11.68
2018-04-16T01:39:06.881Z,11.4
2018-04-16T01:41:07.133Z,9.02
2018-04-16T01:45:07.899Z,8.57
2018-04-16T01:51:08.368Z,9.67
2018-04-16T01:55:08.962Z,9.75
2018-04-16T02:01:09.514Z,12.27
2018-04-16T02:05:10.116Z,9.64
2018-04-16T02:07:10.547Z,10.62
2018-04-16T02:11:11.133Z,10.8
2018-04-16T02:17:11.680Z,12.11
2018-04-16T02:21:12.215Z,8.23
2018-04-16T02:27:12.713Z,9
2018-04-16T02:33:13.243Z,9.56
2018-04-16T02:37:13.798Z,12.52
2018-04-16T02:43:14.371Z,9.86
2018-04-16T02:47:14.870Z,9.59
2018-04-16T02:53:15.489Z,10.34
2018-04-16T02:59:16.073Z,11.98
2018-04-16T03:03:16.575Z,11.41
2018-04-16T03:09:17.119Z,8.07
2018-04-16T03:13:17.634Z,10.7
2018-04-16T03:19:18.140Z,12.28
2018-04-16T03:25:18.687Z,7.1
2018-04-16T03:29:19.343Z,9.15
2018-04-16T03:35:19.933Z,9.88
2018-04-16T03:39:20.394Z,9.42
2018-04-16T03:41:20.846Z,10.1
2018-04-16T03:45:21.855Z,9.33
2018-04-16T03:51:22.357Z,8.87
2018-04-16T03:55:22.960Z,11.6
2018-04-16T04:01:23.458Z,11.28
2018-04-16T04:05:23.984Z,10.73
2018-04-16T04:07:24.486Z,10.79
2018-04-16T04:11:24.896Z,10.98
2018-04-16T04:17:25.384Z,9.99
2018-04-16T04:21:25.945Z,7.88
2018-04-16T04:27:26.542Z,12.56
2018-04-16T04:31:27.019Z,15.03
2018-04-16T04:33:27.552Z,10.8
2018-04-16T04:37:27.992Z,12.3
2018-04-16T04:43:28.531Z,11.03
2018-04-16T04:47:28.956Z,10.08
2018-04-16T04:53:29.619Z,11.16
2018-04-16T04:59:30.122Z,10.2
2018-04-16T05:03:31.291Z,12.94
2018-04-16T05:09:32.148Z,18.45
2018-04-16T05:13:32.638Z,15.79
2018-04-16T05:19:33.226Z,14.13
2018-04-16T05:25:33.766Z,12.03
2018-04-16T05:29:34.424Z,11.54
2018-04-16T05:35:35.012Z,12.03
2018-04-16T05:39:35.610Z,11.57
2018-04-16T05:41:36.142Z,10.51
2018-04-16T05:45:36.722Z,12.52
2018-04-16T05:51:37.220Z,11.78
2018-04-16T05:55:37.982Z,14.64
2018-04-16T06:01:38.596Z,14.83
2018-04-16T06:05:39.165Z,15.93
2018-04-16T06:07:39.599Z,9.37
2018-04-16T06:11:40.139Z,14.08
2018-04-16T06:17:40.723Z,11.28
2018-04-16T06:21:41.402Z,12.34
2018-04-16T06:27:41.908Z,11.57
2018-04-16T06:31:42.556Z,13.02
2018-04-16T06:33:43.051Z,11.9
2018-04-16T06:37:43.592Z,12.26
2018-04-16T06:43:44.151Z,12.89
2018-04-16T06:47:44.635Z,19.65
2018-04-16T06:53:45.281Z,18.33
2018-04-16T06:59:45.912Z,16.63
2018-04-16T07:03:46.413Z,17.4
2018-04-16T07:09:46.961Z,17.69
2018-04-16T07:13:47.555Z,18.2
2018-04-16T07:19:48.111Z,18.29
2018-04-16T07:25:48.573Z,12.59
2018-04-16T07:29:49.131Z,15.47
2018-04-16T07:35:49.666Z,16.08
2018-04-16T07:39:50.298Z,17.74
2018-04-16T07:45:50.771Z,15.85
2018-04-16T07:51:51.309Z,9.96
2018-04-16T07:55:51.761Z,11.64
2018-04-16T08:01:52.458Z,11.44
2018-04-16T08:05:52.986Z,12.05
2018-04-16T08:07:53.526Z,12.5
2018-04-16T08:11:54.178Z,17.07
2018-04-16T08:17:54.688Z,14.13
2018-04-16T08:21:55.267Z,13.89
2018-04-16T08:27:55.862Z,13.22
2018-04-16T08:31:56.500Z,13.33
2018-04-16T08:33:56.915Z,9.93
2018-04-16T08:37:57.445Z,12.86
2018-04-16T08:43:58.060Z,9.83
2018-04-16T08:47:58.720Z,14.44
2018-04-16T08:53:59.292Z,12.56
2018-04-16T08:59:59.918Z,11.39
2018-04-16T09:04:00.601Z,16.18
2018-04-16T09:10:01.000Z,13.21
2018-04-16T09:14:01.616Z,13.17
2018-04-16T09:20:02.294Z,12.29
2018-04-16T09:26:02.889Z,12.34
2018-04-16T09:30:03.425Z,12.38
2018-04-16T09:36:04.167Z,11.52
2018-04-16T09:40:04.656Z,12.94
2018-04-16T09:46:05.212Z,13.65
2018-04-16T09:52:05.734Z,13.05
2018-04-16T09:56:06.361Z,11.69
2018-04-16T10:02:07.098Z,13.72
2018-04-16T10:06:07.673Z,13.38
2018-04-16T10:08:08.120Z,11.85
2018-04-16T10:12:08.649Z,13.89
2018-04-16T10:18:09.288Z,10.28
2018-04-16T10:22:09.749Z,12.19
2018-04-16T10:28:10.403Z,17.13
2018-04-16T10:32:10.956Z,10.69
2018-04-16T10:34:11.462Z,10.56
2018-04-16T10:38:11.853Z,11.78
2018-04-16T10:44:12.366Z,13.57
2018-04-16T10:48:12.932Z,12.33
2018-04-16T10:54:13.444Z,10.69
2018-04-16T11:00:14.405Z,9.79
2018-04-16T11:04:14.865Z,9.88
2018-04-16T11:10:15.360Z,11.16
2018-04-16T11:14:15.825Z,11.78
2018-04-16T11:20:16.453Z,15.05
2018-04-16T11:26:23.280Z,10.56
2018-04-16T11:30:24.126Z,15.84
2018-04-16T11:36:24.846Z,11.64
2018-04-16T11:40:25.344Z,14.68
2018-04-16T11:46:25.881Z,11.66
2018-04-16T11:52:26.487Z,14.94
2018-04-16T11:56:27.293Z,11.78
2018-04-16T12:02:27.854Z,9.83
2018-04-16T12:06:28.384Z,11.85
2018-04-16T12:12:28.955Z,14.72
2018-04-16T12:18:29.467Z,9.39
2018-04-16T12:22:29.963Z,9.69
2018-04-16T12:28:30.776Z,10.32
2018-04-16T12:32:31.494Z,9.26
2018-04-16T12:34:32.484Z,8.99
2018-04-16T12:38:32.907Z,8.79
2018-04-16T12:44:33.716Z,10.28
2018-04-16T12:48:34.463Z,11.88
2018-04-16T12:54:34.936Z,12.88
2018-04-16T12:58:35.415Z,13.08
2018-04-16T13:00:36.603Z,9.81
2018-04-16T13:04:37.217Z,9.3
2018-04-16T13:10:37.719Z,12.51
2018-04-16T13:14:38.272Z,13.35
2018-04-16T13:20:38.873Z,10.09
2018-04-16T13:26:39.492Z,10.74
2018-04-16T13:30:40.593Z,9.02
2018-04-16T13:36:41.125Z,10.29
2018-04-16T13:40:41.752Z,9.14
2018-04-16T13:46:42.229Z,10.79
2018-04-16T13:52:42.765Z,9.83
2018-04-16T13:56:43.430Z,11.08
2018-04-16T14:02:43.959Z,12.61
2018-04-16T14:06:44.437Z,9.13
2018-04-16T14:12:44.980Z,10.48
2018-04-16T14:18:45.608Z,8.14
2018-04-16T14:22:46.234Z,10.11
2018-04-16T14:28:46.821Z,10
2018-04-16T14:32:47.380Z,7.97
2018-04-16T14:34:47.881Z,9.28
2018-04-16T14:38:48.678Z,8.02
2018-04-16T14:44:49.313Z,10.24
2018-04-16T14:48:50.205Z,12.98
2018-04-16T14:54:51.896Z,6.93
2018-04-16T14:58:53.062Z,9.92
2018-04-16T15:00:53.978Z,7.89
2018-04-16T15:04:54.550Z,8.27
2018-04-16T15:10:55.206Z,12.59
2018-04-16T15:14:55.656Z,10.44
2018-04-16T15:20:56.409Z,8.03
2018-04-16T15:24:57.337Z,8.43
2018-04-16T15:26:58.015Z,8.17
2018-04-16T15:30:58.570Z,8.16
2018-04-16T15:36:59.220Z,9.47
2018-04-16T15:40:59.935Z,8.25
2018-04-16T15:47:00.476Z,7.6
2018-04-16T15:53:01.037Z,7.24
2018-04-16T15:57:01.576Z,8.66
2018-04-16T16:03:02.461Z,6.76
2018-04-16T16:07:03.050Z,11.19
2018-04-16T16:13:04.020Z,9.25
2018-04-16T16:19:04.759Z,8.17
2018-04-16T16:23:05.426Z,7.66
2018-04-16T16:29:05.967Z,8.52
2018-04-16T16:33:06.868Z,10.51
2018-04-16T16:35:07.875Z,9.43
2018-04-16T16:39:08.779Z,8.25
2018-04-16T16:45:09.740Z,8.12
2018-04-16T16:49:10.855Z,8.4
2018-04-16T16:55:11.638Z,8.24
2018-04-16T16:59:12.156Z,9.96
2018-04-16T17:01:13.048Z,7.74
2018-04-16T17:05:13.592Z,8.48
2018-04-16T17:11:14.186Z,9.18
2018-04-16T17:15:14.916Z,11.44
2018-04-16T17:21:15.846Z,12.65
2018-04-16T17:25:16.753Z,14.01
2018-04-16T17:27:17.734Z,7.48
2018-04-16T17:31:18.723Z,10.43
2018-04-16T17:37:19.608Z,7.89
2018-04-16T17:41:20.195Z,8
2018-04-16T17:47:20.927Z,7.46
2018-04-16T17:51:21.974Z,8.25
2018-04-16T17:53:22.858Z,7.94
2018-04-16T17:57:23.773Z,9.11
2018-04-16T18:03:24.700Z,10.04
2018-04-16T18:07:25.876Z,10.91
2018-04-16T18:13:26.935Z,9.49
2018-04-16T18:51:10.625Z,6.56
2018-04-16T18:55:11.463Z,6.05
2018-04-16T19:01:12.349Z,7.41
2018-04-16T19:05:13.544Z,8.52
2018-04-16T19:11:14.299Z,8.56
2018-04-16T19:17:15.228Z,10.95
2018-04-16T19:21:15.690Z,9.71
2018-04-16T19:27:16.241Z,7.84
2018-04-16T19:31:16.737Z,6.76
2018-04-16T19:33:17.330Z,5.59
2018-04-16T19:37:17.959Z,6.2
2018-04-16T19:43:18.571Z,7.39
2018-04-16T19:47:19.111Z,8.15
2018-04-16T19:53:19.641Z,7.88
2018-04-16T19:57:20.290Z,7.58
2018-04-16T19:59:21.021Z,7.68
2018-04-16T20:03:21.595Z,9.56
2018-04-16T20:09:22.092Z,9.53
2018-04-16T20:13:22.730Z,7.52
2018-04-16T20:19:23.354Z,7.47
2018-04-16T20:23:24.338Z,6.44
2018-04-16T20:25:24.825Z,10.1
2018-04-16T20:29:25.431Z,7.51
2018-04-16T20:35:25.974Z,7.17
2018-04-16T20:39:27.126Z,8.48
2018-04-16T20:45:28.345Z,6.84
2018-04-16T20:51:28.779Z,9.34
2018-04-16T20:55:29.350Z,9.02
2018-04-16T21:01:29.791Z,8.44
2018-04-16T21:05:30.217Z,8.51
2018-04-16T21:11:30.719Z,7.65
2018-04-16T21:17:31.301Z,6.36
2018-04-16T21:21:31.720Z,8.44
2018-04-16T21:27:32.350Z,9.59
2018-04-16T21:31:32.928Z,6.42
2018-04-16T21:37:33.502Z,5.96
2018-04-16T21:43:34.109Z,9.13
2018-04-16T21:47:34.628Z,5.94
2018-04-16T21:53:35.395Z,8.3
2018-04-16T21:57:36.318Z,6.31
2018-04-16T21:59:36.846Z,5.77
2018-04-16T22:03:37.550Z,5.77
2018-04-16T22:09:38.061Z,5.45
2018-04-16T22:13:38.664Z,7.01
2018-04-16T22:19:39.166Z,4.95
2018-04-16T22:23:39.646Z,6.46
2018-04-16T22:25:40.074Z,6.24
2018-04-16T22:29:40.729Z,8.16
2018-04-16T22:35:41.202Z,6.32
2018-04-16T22:39:41.751Z,6.98
2018-04-16T22:45:42.257Z,5.57
2018-04-16T22:51:42.755Z,6.12
2018-04-16T22:55:43.264Z,6.57
2018-04-16T23:01:43.828Z,6.63
2018-04-16T23:05:44.263Z,8.24
2018-04-16T23:11:44.777Z,8.3
2018-04-16T23:17:45.418Z,6.04
2018-04-16T23:21:45.916Z,5.64
2018-04-16T23:27:46.549Z,6.3
2018-04-16T23:31:47.096Z,5.62
2018-04-16T23:37:47.650Z,7.28
2018-04-16T23:43:48.230Z,4.68
2018-04-16T23:47:48.831Z,6.22
2018-04-16T23:53:49.340Z,5.65
2018-04-16T23:57:49.933Z,5.46
2018-04-16T23:59:50.469Z,5.47
